createdAt,value
2017-08-28T00:00:46.040Z,83.80
2017-08-28T00:03:14.362Z,83.60
2017-08-28T00:05:42.596Z,83.70
2017-08-28T00:08:12.558Z,83.70
2017-08-28T00:10:40.855Z,83.50
2017-08-28T00:13:09.150Z,83.50
2017-08-28T00:15:37.390Z,83.20
2017-08-28T00:18:06.448Z,82.70
2017-08-28T00:20:34.726Z,82.70
2017-08-28T00:23:02.992Z,81.40
2017-08-28T00:25:31.265Z,80.90
2017-08-28T00:27:59.498Z,81.00
2017-08-28T00:30:27.770Z,80.70
2017-08-28T00:32:56.057Z,80.40
2017-08-28T00:35:24.297Z,80.30
2017-08-28T00:37:52.822Z,80.60
2017-08-28T00:40:21.089Z,80.60
2017-08-28T00:42:49.375Z,80.80
2017-08-28T00:45:17.628Z,80.90
2017-08-28T00:47:45.906Z,81.00
2017-08-28T00:50:14.134Z,80.90
2017-08-28T00:52:42.428Z,81.10
2017-08-28T00:55:10.682Z,81.30
2017-08-28T01:04:25.743Z,81.30
2017-08-28T01:06:54.013Z,81.20
2017-08-28T01:09:22.299Z,81.20
2017-08-28T01:11:50.553Z,80.70
2017-08-28T01:14:19.197Z,80.40
2017-08-28T01:16:47.473Z,80.80
2017-08-28T01:19:15.724Z,80.50
2017-08-28T01:21:43.974Z,80.30
2017-08-28T01:24:12.223Z,80.30
2017-08-28T01:26:40.489Z,79.90
2017-08-28T01:29:08.748Z,80.10
2017-08-28T01:31:37.007Z,80.10
2017-08-28T01:34:06.157Z,80.00
2017-08-28T01:36:35.227Z,79.80
2017-08-28T01:39:03.499Z,80.30
2017-08-28T01:41:31.747Z,80.40
2017-08-28T01:44:00.013Z,80.00
2017-08-28T01:46:28.262Z,80.10
2017-08-28T01:48:56.515Z,80.10
2017-08-28T01:51:24.766Z,80.90
2017-08-28T01:53:53.010Z,80.90
2017-08-28T01:56:21.291Z,80.70
2017-08-28T01:58:49.533Z,80.70
2017-08-28T02:01:17.821Z,80.50
2017-08-28T02:03:46.057Z,80.50
2017-08-28T02:06:14.275Z,80.50
2017-08-28T02:08:42.541Z,80.50
2017-08-28T02:11:10.826Z,80.30
2017-08-28T02:13:39.066Z,80.20
2017-08-28T02:16:07.314Z,80.30
2017-08-28T02:18:35.605Z,80.20
2017-08-28T02:21:03.867Z,80.20
2017-08-28T02:23:32.122Z,80.20
2017-08-28T02:26:00.390Z,80.30
2017-08-28T02:28:28.666Z,80.30
2017-08-28T02:30:56.915Z,80.10
2017-08-28T02:33:25.184Z,80.20
2017-08-28T02:35:53.439Z,79.90
2017-08-28T02:38:21.712Z,80.00
2017-08-28T02:40:50.018Z,80.10
2017-08-28T02:43:18.253Z,80.50
2017-08-28T02:45:46.477Z,80.50
2017-08-28T02:48:14.761Z,80.60
2017-08-28T02:50:43.036Z,80.60
2017-08-28T02:53:11.261Z,80.60
2017-08-28T02:55:39.545Z,80.50
2017-08-28T02:58:07.806Z,80.60
2017-08-28T03:00:36.053Z,81.00
2017-08-28T03:03:04.326Z,80.40
2017-08-28T03:05:32.599Z,80.90
2017-08-28T03:08:01.886Z,81.00
2017-08-28T03:10:30.096Z,81.10
2017-08-28T03:12:59.088Z,81.00
2017-08-28T03:15:27.337Z,80.90
2017-08-28T03:17:55.587Z,81.20
2017-08-28T03:20:23.815Z,81.10
2017-08-28T03:22:52.059Z,81.20
2017-08-28T03:25:20.302Z,81.50
2017-08-28T03:27:48.568Z,81.50
2017-08-28T03:30:16.816Z,81.50
2017-08-28T03:32:45.099Z,81.30
2017-08-28T03:35:13.346Z,81.40
2017-08-28T03:37:42.389Z,81.30
2017-08-28T03:40:10.647Z,81.30
2017-08-28T03:42:39.662Z,80.90
2017-08-28T03:45:07.898Z,80.90
2017-08-28T03:47:36.175Z,80.80
2017-08-28T03:50:04.430Z,80.90
2017-08-28T03:52:32.669Z,80.90
2017-08-28T03:55:00.959Z,80.80
2017-08-28T03:57:29.203Z,81.10
2017-08-28T03:59:57.467Z,80.70
2017-08-28T04:02:26.483Z,81.00
2017-08-28T04:04:54.743Z,80.40
2017-08-28T04:07:23.019Z,80.60
2017-08-28T04:09:51.258Z,80.50
2017-08-28T04:12:20.305Z,80.50
2017-08-28T04:14:48.524Z,80.60
2017-08-28T04:17:16.755Z,80.70
2017-08-28T04:19:45.018Z,80.90
2017-08-28T04:22:14.040Z,80.60
2017-08-28T04:24:42.326Z,80.60
2017-08-28T04:27:10.545Z,80.70
2017-08-28T04:29:38.799Z,80.90
2017-08-28T04:32:07.315Z,80.90
2017-08-28T04:34:35.590Z,80.80
2017-08-28T04:37:03.847Z,80.80
2017-08-28T04:39:32.090Z,80.50
2017-08-28T04:42:00.424Z,80.30
2017-08-28T04:44:28.656Z,80.30
2017-08-28T04:46:56.934Z,80.00
2017-08-28T04:49:25.182Z,79.80
2017-08-28T04:51:53.439Z,79.90
2017-08-28T04:54:21.700Z,79.90
2017-08-28T04:56:49.934Z,80.00
2017-08-28T04:59:18.265Z,80.00
2017-08-28T05:01:46.514Z,79.80
2017-08-28T05:04:14.761Z,79.80
2017-08-28T05:06:43.022Z,79.90
2017-08-28T05:09:12.061Z,79.70
2017-08-28T05:11:40.273Z,79.60
2017-08-28T05:14:08.530Z,79.40
2017-08-28T05:16:36.830Z,79.40
2017-08-28T05:19:05.068Z,79.30
2017-08-28T05:21:33.324Z,79.30
2017-08-28T05:24:01.570Z,79.30
2017-08-28T05:26:29.978Z,79.10
2017-08-28T05:28:58.230Z,79.00
2017-08-28T05:31:26.483Z,78.80
2017-08-28T05:33:54.721Z,78.60
2017-08-28T05:36:22.995Z,78.50
2017-08-28T05:38:51.231Z,79.00
2017-08-28T05:41:20.226Z,77.80
2017-08-28T05:43:48.490Z,77.80
2017-08-28T05:46:16.800Z,77.60
2017-08-28T05:48:45.057Z,77.70
2017-08-28T05:51:13.324Z,77.70
2017-08-28T05:53:41.589Z,77.50
2017-08-28T05:56:09.823Z,77.30
2017-08-28T05:58:38.074Z,76.90
2017-08-28T06:01:06.324Z,76.50
2017-08-28T06:03:34.577Z,76.60
2017-08-28T06:06:02.827Z,76.40
2017-08-28T06:08:31.127Z,76.50
2017-08-28T06:10:59.335Z,76.00
2017-08-28T06:13:27.602Z,76.20
2017-08-28T06:15:55.853Z,76.10
2017-08-28T06:18:24.145Z,75.90
2017-08-28T06:20:52.386Z,75.80
2017-08-28T06:23:20.683Z,76.00
2017-08-28T06:25:48.921Z,75.70
2017-08-28T06:28:17.162Z,75.80
2017-08-28T06:30:45.445Z,75.60
2017-08-28T06:33:14.479Z,74.60
2017-08-28T06:35:42.740Z,74.50
2017-08-28T06:38:10.995Z,74.50
2017-08-28T06:40:39.267Z,74.40
2017-08-28T06:43:07.545Z,73.90
2017-08-28T06:45:35.846Z,74.30
2017-08-28T06:48:04.087Z,73.70
2017-08-28T06:50:32.349Z,73.20
2017-08-28T06:53:00.610Z,73.10
2017-08-28T06:55:28.858Z,72.90
2017-08-28T06:57:57.134Z,72.90
2017-08-28T07:00:25.376Z,72.80
2017-08-28T07:02:53.686Z,72.70
2017-08-28T07:05:21.925Z,72.40
2017-08-28T07:07:50.181Z,72.30
2017-08-28T07:10:18.436Z,72.30
2017-08-28T07:12:46.685Z,72.10
2017-08-28T07:15:14.946Z,71.50
2017-08-28T07:17:43.226Z,71.00
2017-08-28T07:20:11.482Z,70.40
2017-08-28T07:22:39.812Z,71.10
2017-08-28T07:25:08.120Z,70.20
2017-08-28T07:27:36.665Z,69.80
2017-08-28T07:30:04.951Z,70.30
2017-08-28T07:32:34.047Z,70.00
2017-08-28T07:35:02.318Z,70.50
2017-08-28T07:37:30.603Z,69.10
2017-08-28T07:39:58.831Z,69.50
2017-08-28T07:42:27.077Z,68.60
2017-08-28T07:44:55.399Z,69.10
2017-08-28T07:47:23.662Z,68.00
2017-08-28T07:49:51.858Z,67.80
2017-08-28T07:52:20.891Z,67.60
2017-08-28T07:54:59.068Z,67.60
2017-08-28T07:57:27.368Z,67.60
2017-08-28T07:59:55.627Z,67.00
2017-08-28T08:02:23.864Z,67.20
2017-08-28T08:04:52.157Z,67.40
2017-08-28T08:07:20.720Z,66.20
2017-08-28T08:09:48.981Z,65.00
2017-08-28T08:12:17.318Z,66.20
2017-08-28T08:14:45.566Z,64.50
2017-08-28T08:17:13.834Z,63.60
2017-08-28T08:19:42.142Z,64.90
2017-08-28T08:22:11.351Z,64.40
2017-08-28T08:24:39.581Z,63.80
2017-08-28T08:27:07.885Z,63.80
2017-08-28T08:29:36.154Z,62.70
2017-08-28T08:32:04.438Z,62.30
2017-08-28T08:34:32.708Z,62.50
2017-08-28T08:37:00.954Z,62.50
2017-08-28T08:39:29.225Z,62.40
2017-08-28T08:41:57.785Z,62.30
2017-08-28T08:44:26.047Z,62.10
2017-08-28T08:46:54.725Z,61.80
2017-08-28T08:49:23.011Z,61.80
2017-08-28T08:51:51.251Z,60.60
2017-08-28T08:54:19.498Z,60.80
2017-08-28T08:56:47.763Z,60.20
2017-08-28T08:59:15.998Z,59.90
2017-08-28T09:01:44.732Z,60.00
2017-08-28T09:04:12.994Z,60.30
2017-08-28T09:06:41.286Z,60.00
2017-08-28T09:09:09.539Z,59.60
2017-08-28T09:11:37.771Z,59.70
2017-08-28T09:14:06.028Z,59.20
2017-08-28T09:16:34.298Z,59.10
2017-08-28T09:19:02.552Z,58.80
2017-08-28T09:21:30.797Z,57.60
2017-08-28T09:23:59.055Z,56.70
2017-08-28T09:26:27.328Z,56.80
2017-08-28T09:28:55.594Z,57.00
2017-08-28T09:31:24.603Z,57.00
2017-08-28T09:33:52.863Z,57.10
2017-08-28T09:36:21.127Z,56.60
2017-08-28T09:38:49.479Z,56.00
2017-08-28T09:41:18.173Z,55.30
2017-08-28T09:43:46.439Z,55.80
2017-08-28T09:46:14.733Z,54.20
2017-08-28T09:48:42.973Z,54.00
2017-08-28T09:51:11.222Z,54.10
2017-08-28T09:53:39.481Z,54.50
2017-08-28T09:56:07.759Z,53.20
2017-08-28T09:58:36.013Z,53.90
2017-08-28T10:01:04.272Z,52.30
2017-08-28T10:03:32.557Z,51.50
2017-08-28T10:06:00.806Z,51.80
2017-08-28T10:08:29.059Z,53.70
2017-08-28T10:10:57.496Z,50.80
2017-08-28T10:13:25.765Z,50.40
2017-08-28T10:15:54.066Z,50.40
2017-08-28T10:18:22.323Z,50.40
2017-08-28T10:20:50.582Z,51.60
2017-08-28T10:23:18.865Z,52.10
2017-08-28T10:25:47.188Z,51.50
2017-08-28T10:28:15.484Z,50.10
2017-08-28T10:30:43.779Z,50.00
2017-08-28T10:33:12.017Z,49.70
2017-08-28T10:35:40.275Z,50.10
2017-08-28T10:38:08.529Z,49.30
2017-08-28T10:40:37.755Z,49.20
2017-08-28T10:43:06.009Z,50.70
2017-08-28T10:45:34.522Z,50.60
2017-08-28T10:48:02.790Z,51.80
2017-08-28T10:50:31.062Z,49.40
2017-08-28T10:53:04.991Z,48.50
2017-08-28T10:55:33.250Z,48.80
2017-08-28T10:58:01.548Z,49.00
2017-08-28T11:00:29.900Z,48.70
2017-08-28T11:02:58.172Z,48.30
2017-08-28T11:05:26.446Z,48.30
2017-08-28T11:07:54.670Z,47.80
2017-08-28T11:10:23.055Z,47.80
2017-08-28T11:12:51.340Z,48.10
2017-08-28T11:15:19.576Z,48.40
2017-08-28T11:17:47.863Z,46.30
2017-08-28T11:20:16.112Z,46.10
2017-08-28T11:22:44.442Z,46.70
2017-08-28T11:25:12.704Z,46.40
2017-08-28T11:27:40.968Z,46.80
2017-08-28T11:30:09.201Z,46.40
2017-08-28T11:32:37.454Z,47.30
2017-08-28T11:35:05.724Z,46.80
2017-08-28T11:37:33.980Z,47.80
2017-08-28T11:40:02.235Z,47.70
2017-08-28T11:42:31.254Z,47.40
2017-08-28T11:44:59.522Z,46.80
2017-08-28T11:47:27.811Z,46.50
2017-08-28T11:49:56.038Z,46.20
2017-08-28T11:52:24.354Z,49.70
2017-08-28T11:54:52.609Z,48.20
2017-08-28T11:57:20.831Z,46.50
2017-08-28T11:59:49.128Z,45.80
2017-08-28T12:02:17.442Z,47.60
2017-08-28T12:04:45.664Z,45.10
2017-08-28T12:07:13.962Z,44.80
2017-08-28T12:09:42.839Z,44.60
2017-08-28T12:12:11.085Z,44.60
2017-08-28T12:14:39.403Z,44.80
2017-08-28T12:17:07.673Z,44.90
2017-08-28T12:19:35.954Z,46.00
2017-08-28T12:22:04.215Z,45.30
2017-08-28T12:24:32.503Z,45.30
2017-08-28T12:27:00.746Z,45.60
2017-08-28T12:29:29.058Z,45.10
2017-08-28T12:31:57.455Z,45.80
2017-08-28T12:34:25.674Z,45.00
2017-08-28T12:36:53.954Z,45.60
2017-08-28T12:39:22.233Z,46.70
2017-08-28T12:41:50.505Z,45.80
2017-08-28T12:44:18.774Z,46.00
2017-08-28T12:46:47.055Z,45.00
2017-08-28T12:49:15.330Z,46.00
2017-08-28T12:51:43.590Z,45.30
2017-08-28T12:54:11.834Z,44.80
2017-08-28T12:56:40.110Z,44.20
2017-08-28T12:59:08.390Z,44.60
2017-08-28T13:01:36.645Z,43.90
2017-08-28T13:04:04.892Z,44.50
2017-08-28T13:06:33.175Z,45.10
2017-08-28T13:09:01.440Z,45.50
2017-08-28T13:11:29.738Z,46.20
2017-08-28T13:13:57.992Z,44.80
2017-08-28T13:16:26.273Z,45.30
2017-08-28T13:18:54.531Z,45.10
2017-08-28T13:21:22.782Z,45.10
2017-08-28T13:23:51.050Z,44.50
2017-08-28T13:26:19.322Z,45.00
2017-08-28T13:28:47.556Z,44.00
2017-08-28T13:31:15.802Z,43.70
2017-08-28T13:33:44.091Z,44.50
2017-08-28T13:36:12.354Z,44.70
2017-08-28T13:38:40.595Z,44.30
2017-08-28T13:41:08.872Z,44.00
2017-08-28T13:43:37.130Z,45.30
2017-08-28T13:46:05.366Z,44.30
2017-08-28T13:48:33.648Z,45.10
2017-08-28T13:51:01.883Z,45.40
2017-08-28T13:53:30.203Z,45.10
2017-08-28T13:55:58.459Z,44.80
2017-08-28T13:58:26.731Z,44.90
2017-08-28T14:00:54.982Z,44.50
2017-08-28T14:03:23.246Z,43.30
2017-08-28T14:05:51.485Z,45.50
2017-08-28T14:08:19.765Z,45.00
2017-08-28T14:10:48.036Z,43.90
2017-08-28T14:13:17.298Z,43.90
2017-08-28T14:15:45.562Z,44.00
2017-08-28T14:18:13.854Z,44.00
2017-08-28T14:20:42.120Z,44.50
2017-08-28T14:23:10.409Z,43.60
2017-08-28T14:25:38.653Z,43.90
2017-08-28T14:28:06.902Z,43.20
2017-08-28T14:30:35.211Z,43.80
2017-08-28T14:33:03.524Z,44.30
2017-08-28T14:35:31.770Z,43.50
2017-08-28T14:38:00.074Z,43.00
2017-08-28T14:40:28.322Z,41.70
2017-08-28T14:42:57.744Z,41.50
2017-08-28T14:45:26.046Z,41.50
2017-08-28T14:47:54.317Z,41.70
2017-08-28T14:50:22.583Z,41.80
2017-08-28T14:52:50.883Z,43.40
2017-08-28T14:55:19.211Z,43.50
2017-08-28T14:57:47.423Z,42.10
2017-08-28T15:00:15.716Z,41.60
2017-08-28T15:02:44.036Z,41.30
2017-08-28T15:05:12.318Z,42.10
2017-08-28T15:07:40.538Z,41.80
2017-08-28T15:10:09.357Z,41.60
2017-08-28T15:12:37.592Z,41.80
2017-08-28T15:15:05.882Z,41.40
2017-08-28T15:17:34.147Z,41.70
2017-08-28T15:20:03.162Z,43.40
2017-08-28T15:22:31.453Z,41.60
2017-08-28T15:24:59.702Z,41.20
2017-08-28T15:27:27.992Z,41.40
2017-08-28T15:29:56.262Z,41.80
2017-08-28T15:32:24.563Z,42.60
2017-08-28T15:34:52.821Z,41.60
2017-08-28T15:37:21.601Z,44.80
2017-08-28T15:39:49.846Z,43.40
2017-08-28T15:42:18.111Z,43.80
2017-08-28T15:44:46.990Z,44.50
2017-08-28T15:47:15.771Z,43.50
2017-08-28T15:49:44.054Z,42.70
2017-08-28T15:52:13.097Z,42.70
2017-08-28T15:54:41.327Z,42.70
2017-08-28T15:57:09.657Z,43.90
2017-08-28T15:59:37.919Z,43.20
2017-08-28T16:02:06.183Z,44.00
2017-08-28T16:04:34.459Z,44.80
2017-08-28T16:07:02.704Z,46.30
2017-08-28T16:09:30.993Z,45.70
2017-08-28T16:11:59.242Z,45.60
2017-08-28T16:14:27.497Z,46.80
2017-08-28T16:16:55.791Z,45.20
2017-08-28T16:19:24.042Z,47.40
2017-08-28T16:21:52.259Z,45.50
2017-08-28T16:24:20.548Z,46.50
2017-08-28T16:26:48.831Z,47.20
2017-08-28T16:29:17.084Z,46.90
2017-08-28T16:31:45.342Z,47.90
2017-08-28T16:34:13.646Z,48.00
2017-08-28T16:36:41.907Z,48.80
2017-08-28T16:39:10.187Z,49.10
2017-08-28T16:41:38.431Z,46.90
2017-08-28T16:44:06.732Z,46.00
2017-08-28T16:46:35.067Z,45.20
2017-08-28T16:49:03.510Z,45.40
2017-08-28T16:51:32.183Z,45.40
2017-08-28T16:54:00.660Z,47.80
2017-08-28T16:56:30.035Z,48.80
2017-08-28T16:58:58.338Z,47.80
2017-08-28T17:01:26.599Z,46.60
2017-08-28T17:03:54.875Z,45.90
2017-08-28T17:06:23.112Z,46.10
2017-08-28T17:08:51.394Z,46.30
2017-08-28T17:11:19.733Z,46.00
2017-08-28T17:13:48.750Z,46.40
2017-08-28T17:16:16.986Z,46.40
2017-08-28T17:18:45.263Z,47.70
2017-08-28T17:21:13.544Z,47.70
2017-08-28T17:24:01.568Z,51.40
2017-08-28T17:26:29.830Z,48.70
2017-08-28T17:28:58.108Z,50.10
2017-08-28T17:31:26.371Z,50.80
2017-08-28T17:33:54.658Z,50.30
2017-08-28T17:36:22.904Z,50.60
2017-08-28T17:38:51.170Z,50.20
2017-08-28T17:41:19.415Z,51.50
2017-08-28T17:43:48.445Z,50.90
2017-08-28T17:46:16.681Z,50.70
2017-08-28T17:48:45.023Z,51.10
2017-08-28T17:51:13.278Z,53.40
2017-08-28T17:53:41.558Z,53.10
2017-08-28T17:56:09.815Z,54.10
2017-08-28T17:58:38.078Z,55.10
2017-08-28T18:01:06.389Z,55.40
2017-08-28T18:03:34.639Z,55.70
2017-08-28T18:06:02.906Z,57.20
2017-08-28T18:08:31.219Z,58.70
2017-08-28T18:10:59.464Z,59.50
2017-08-28T18:13:27.746Z,59.90
2017-08-28T18:15:55.998Z,61.00
2017-08-28T18:18:24.286Z,62.00
2017-08-28T18:20:52.537Z,62.50
2017-08-28T18:23:21.547Z,62.30
2017-08-28T18:25:49.803Z,63.40
2017-08-28T18:28:18.898Z,63.40
2017-08-28T18:30:47.169Z,63.60
2017-08-28T18:33:15.424Z,63.40
2017-08-28T18:35:43.728Z,63.70
2017-08-28T18:38:11.973Z,64.10
2017-08-28T18:40:40.210Z,64.70
2017-08-28T18:43:08.504Z,65.10
2017-08-28T18:45:36.772Z,65.60
2017-08-28T18:48:05.038Z,65.30
2017-08-28T18:50:33.376Z,65.60
2017-08-28T18:53:01.794Z,66.60
2017-08-28T18:55:30.095Z,66.10
2017-08-28T18:57:58.382Z,66.30
2017-08-28T19:00:26.677Z,67.50
2017-08-28T19:02:55.940Z,68.50
2017-08-28T19:05:24.302Z,68.90
2017-08-28T19:07:52.559Z,69.00
2017-08-28T19:10:20.974Z,69.60
2017-08-28T19:12:49.349Z,70.60
2017-08-28T19:15:17.591Z,71.00
2017-08-28T19:17:45.880Z,71.80
2017-08-28T19:20:14.165Z,72.40
2017-08-28T19:22:42.415Z,73.10
2017-08-28T19:25:10.716Z,73.60
2017-08-28T19:27:38.958Z,74.30
2017-08-28T19:30:07.242Z,74.60
2017-08-28T19:32:35.504Z,75.10
2017-08-28T19:35:03.770Z,75.30
2017-08-28T19:37:32.045Z,75.30
2017-08-28T19:40:00.299Z,75.00
2017-08-28T19:42:29.306Z,75.20
2017-08-28T19:44:57.558Z,75.20
2017-08-28T19:47:25.908Z,75.60
2017-08-28T19:49:54.156Z,75.80
2017-08-28T19:52:22.434Z,76.30
2017-08-28T19:54:50.725Z,76.90
2017-08-28T19:57:19.210Z,77.20
2017-08-28T19:59:47.485Z,77.30
2017-08-28T20:02:15.800Z,77.50
2017-08-28T20:04:44.398Z,77.70
2017-08-28T20:07:12.699Z,77.60
2017-08-28T20:09:41.109Z,77.70
2017-08-28T20:12:09.777Z,78.00
2017-08-28T20:14:38.028Z,78.30
2017-08-28T20:17:06.320Z,78.20
2017-08-28T20:19:34.627Z,78.90
2017-08-28T20:22:02.913Z,79.20
2017-08-28T20:24:31.197Z,79.00
2017-08-28T20:26:59.514Z,78.90
2017-08-28T20:29:27.874Z,79.00
2017-08-28T20:31:56.186Z,78.70
2017-08-28T20:34:24.418Z,78.70
2017-08-28T20:36:53.674Z,79.20
2017-08-28T20:39:21.990Z,79.30
2017-08-28T20:41:50.278Z,79.60
2017-08-28T20:44:18.521Z,79.50
2017-08-28T20:46:46.800Z,80.00
2017-08-28T20:49:15.091Z,79.90
2017-08-28T20:51:43.368Z,80.50
2017-08-28T20:54:11.629Z,80.40
2017-08-28T20:56:39.906Z,80.50
2017-08-28T20:59:08.245Z,80.80
2017-08-28T21:01:36.519Z,81.30
2017-08-28T21:04:05.089Z,81.60
2017-08-28T21:06:33.400Z,81.80
2017-08-28T21:09:01.653Z,82.10
2017-08-28T21:11:29.954Z,82.30
2017-08-28T21:13:58.281Z,82.40
2017-08-28T21:16:26.578Z,82.30
2017-08-28T21:18:54.857Z,82.50
2017-08-28T21:21:23.124Z,82.50
2017-08-28T21:23:51.405Z,82.60
2017-08-28T21:26:19.671Z,82.70
2017-08-28T21:28:47.975Z,82.50
2017-08-28T21:31:16.248Z,82.30
2017-08-28T21:33:44.524Z,82.30
2017-08-28T21:36:12.793Z,82.20
2017-08-28T21:38:41.086Z,82.10
2017-08-28T21:41:09.338Z,82.10
2017-08-28T21:43:37.577Z,82.10
2017-08-28T21:46:05.832Z,82.40
2017-08-28T21:48:34.086Z,82.50
2017-08-28T21:51:02.374Z,82.40
2017-08-28T21:53:30.685Z,82.40
2017-08-28T21:55:58.956Z,82.20
2017-08-28T21:58:27.235Z,82.60
2017-08-28T22:00:55.517Z,83.00
2017-08-28T22:03:23.818Z,83.00
2017-08-28T22:05:52.067Z,83.00
2017-08-28T22:08:20.313Z,83.10
2017-08-28T22:10:48.584Z,83.20
2017-08-28T22:13:16.871Z,83.40
2017-08-28T22:15:45.091Z,83.70
2017-08-28T22:18:13.381Z,83.50
2017-08-28T22:20:41.682Z,83.40
2017-08-28T22:23:09.913Z,83.30
2017-08-28T22:25:38.178Z,83.20
2017-08-28T22:28:06.437Z,83.30
2017-08-28T22:30:34.723Z,83.50
2017-08-28T22:33:02.983Z,83.50
2017-08-28T22:35:31.261Z,83.50
2017-08-28T22:37:59.501Z,83.60
2017-08-28T22:40:27.746Z,83.50
2017-08-28T22:42:56.750Z,83.60
2017-08-28T22:45:24.985Z,83.60
2017-08-28T22:47:53.235Z,83.80
2017-08-28T22:50:21.497Z,83.90
2017-08-28T22:52:49.721Z,83.60
2017-08-28T22:55:17.949Z,83.80
2017-08-28T22:57:46.226Z,83.90
2017-08-28T23:00:14.488Z,84.10
2017-08-28T23:02:42.853Z,84.10
2017-08-28T23:05:11.095Z,84.00
2017-08-28T23:07:39.342Z,84.00
2017-08-28T23:10:07.601Z,84.30
2017-08-28T23:12:35.835Z,84.20
2017-08-28T23:15:04.102Z,84.30
2017-08-28T23:17:32.367Z,84.40
2017-08-28T23:20:00.686Z,84.50
2017-08-28T23:22:28.923Z,85.20
2017-08-28T23:24:57.199Z,84.30
2017-08-28T23:27:25.460Z,84.20
2017-08-28T23:29:53.734Z,84.50
2017-08-28T23:32:21.990Z,84.50
2017-08-28T23:34:50.247Z,84.30
2017-08-28T23:37:18.501Z,84.10
2017-08-28T23:39:46.770Z,84.00
2017-08-28T23:42:15.003Z,84.10
2017-08-28T23:44:43.326Z,84.20
2017-08-28T23:47:11.567Z,84.20
2017-08-28T23:49:39.864Z,84.20
2017-08-28T23:52:08.075Z,84.10
2017-08-28T23:54:37.098Z,84.00
2017-08-28T23:57:05.339Z,84.00
2017-08-28T23:59:33.603Z,84.20
